sensor_id;sensor_type;location;lat;lon;timestamp;pressure;altitude;pressure_sealevel;temperature;humidity
79331;BME280;68797;49.782;19.054;2023-07-28T00:01:02;96542.66;;;17.00;53.60
79331;BME280;68797;49.782;19.054;2023-07-28T00:03:33;96553.16;;;17.03;53.58
79331;BME280;68797;49.782;19.054;2023-07-28T00:05:59;96556.59;;;17.05;53.76
79331;BME280;68797;49.782;19.054;2023-07-28T00:08:27;96526.34;;;16.91;55.35
79331;BME280;68797;49.782;19.054;2023-07-28T00:10:54;96541.34;;;17.06;54.43
79331;BME280;68797;49.782;19.054;2023-07-28T00:13:27;96565.47;;;17.06;56.12
79331;BME280;68797;49.782;19.054;2023-07-28T00:16:00;96527.41;;;16.75;56.21
79331;BME280;68797;49.782;19.054;2023-07-28T00:18:29;96556.59;;;17.05;54.13
79331;BME280;68797;49.782;19.054;2023-07-28T00:20:56;96546.63;;;17.07;54.14
79331;BME280;68797;49.782;19.054;2023-07-28T00:23:23;96552.13;;;17.19;54.98
79331;BME280;68797;49.782;19.054;2023-07-28T00:25:50;96536.44;;;17.00;54.83
79331;BME280;68797;49.782;19.054;2023-07-28T00:28:19;96540.59;;;17.04;54.43
79331;BME280;68797;49.782;19.054;2023-07-28T00:30:50;96537.63;;;17.08;55.42
79331;BME280;68797;49.782;19.054;2023-07-28T00:33:19;96556.28;;;17.23;54.79
79331;BME280;68797;49.782;19.054;2023-07-28T00:35:46;96531.94;;;17.00;54.91
79331;BME280;68797;49.782;19.054;2023-07-28T00:38:13;96533.75;;;17.00;54.87
79331;BME280;68797;49.782;19.054;2023-07-28T00:40:42;96530.00;;;17.02;54.92
79331;BME280;68797;49.782;19.054;2023-07-28T00:43:13;96512.09;;;17.03;56.54
79331;BME280;68797;49.782;19.054;2023-07-28T00:45:41;96539.47;;;17.08;56.27
79331;BME280;68797;49.782;19.054;2023-07-28T00:48:21;96502.34;;;16.89;55.71
79331;BME280;68797;49.782;19.054;2023-07-28T00:50:53;96516.25;;;17.07;55.07
79331;BME280;68797;49.782;19.054;2023-07-28T00:53:23;96466.41;;;16.92;54.99
79331;BME280;68797;49.782;19.054;2023-07-28T00:55:55;96506.63;;;17.04;54.70
79331;BME280;68797;49.782;19.054;2023-07-28T00:58:25;96493.78;;;16.97;55.67
79331;BME280;68797;49.782;19.054;2023-07-28T01:00:54;96518.19;;;17.18;55.99
79331;BME280;68797;49.782;19.054;2023-07-28T01:03:23;96495.16;;;17.02;56.84
79331;BME280;68797;49.782;19.054;2023-07-28T01:06:18;96506.22;;;17.10;56.13
79331;BME280;68797;49.782;19.054;2023-07-28T01:09:09;96500.72;;;17.12;55.93
79331;BME280;68797;49.782;19.054;2023-07-28T01:11:58;96462.66;;;16.94;55.89
79331;BME280;68797;49.782;19.054;2023-07-28T01:14:28;96452.69;;;16.83;56.40
79331;BME280;68797;49.782;19.054;2023-07-28T01:16:58;96478.63;;;16.96;56.94
79331;BME280;68797;49.782;19.054;2023-07-28T01:19:27;96498.91;;;17.00;56.76
79331;BME280;68797;49.782;19.054;2023-07-28T01:24:51;96469.97;;;16.79;56.96
79331;BME280;68797;49.782;19.054;2023-07-28T01:27:27;96503.94;;;17.04;56.60
79331;BME280;68797;49.782;19.054;2023-07-28T01:29:55;96476.84;;;16.96;56.39
79331;BME280;68797;49.782;19.054;2023-07-28T01:32:22;96488.31;;;16.98;56.67
79331;BME280;68797;49.782;19.054;2023-07-28T01:34:53;96448.31;;;16.82;57.23
79331;BME280;68797;49.782;19.054;2023-07-28T01:37:20;96489.34;;;16.96;56.84
79331;BME280;68797;49.782;19.054;2023-07-28T01:39:48;96432.97;;;16.72;57.20
79331;BME280;68797;49.782;19.054;2023-07-28T01:42:15;96455.94;;;16.89;57.47
79331;BME280;68797;49.782;19.054;2023-07-28T01:44:46;96458.28;;;16.93;58.22
79331;BME280;68797;49.782;19.054;2023-07-28T01:47:13;96415.50;;;16.66;58.46
79331;BME280;68797;49.782;19.054;2023-07-28T01:49:42;96471.16;;;17.01;56.96
79331;BME280;68797;49.782;19.054;2023-07-28T01:52:10;96475.88;;;16.97;58.18
79331;BME280;68797;49.782;19.054;2023-07-28T01:54:37;96452.63;;;16.85;59.25
79331;BME280;68797;49.782;19.054;2023-07-28T01:57:05;96421.50;;;16.70;58.46
79331;BME280;68797;49.782;19.054;2023-07-28T01:59:34;96441.66;;;17.01;56.67
79331;BME280;68797;49.782;19.054;2023-07-28T02:02:02;96417.56;;;16.88;57.00
79331;BME280;68797;49.782;19.054;2023-07-28T02:04:29;96471.47;;;17.09;58.68
79331;BME280;68797;49.782;19.054;2023-07-28T02:06:59;96432.44;;;16.92;57.16
79331;BME280;68797;49.782;19.054;2023-07-28T02:09:29;96441.34;;;16.80;59.17
79331;BME280;68797;49.782;19.054;2023-07-28T02:11:56;96468.00;;;17.07;56.76
79331;BME280;68797;49.782;19.054;2023-07-28T02:14:23;96406.72;;;16.90;56.43
79331;BME280;68797;49.782;19.054;2023-07-28T02:16:50;96401.16;;;16.80;58.15
79331;BME280;68797;49.782;19.054;2023-07-28T02:19:17;96451.06;;;17.06;59.39
79331;BME280;68797;49.782;19.054;2023-07-28T02:21:45;96405.31;;;16.84;58.45
79331;BME280;68797;49.782;19.054;2023-07-28T02:24:12;96435.56;;;16.99;61.11
79331;BME280;68797;49.782;19.054;2023-07-28T02:26:40;96430.50;;;16.94;62.64
79331;BME280;68797;49.782;19.054;2023-07-28T02:29:13;96425.03;;;16.83;61.93
79331;BME280;68797;49.782;19.054;2023-07-28T02:31:44;96396.31;;;16.60;61.64
79331;BME280;68797;49.782;19.054;2023-07-28T02:34:15;96398.75;;;16.63;61.93
79331;BME280;68797;49.782;19.054;2023-07-28T02:36:42;96401.75;;;16.58;61.23
79331;BME280;68797;49.782;19.054;2023-07-28T02:39:09;96380.97;;;16.49;61.67
79331;BME280;68797;49.782;19.054;2023-07-28T02:41:37;96424.06;;;16.84;59.57
79331;BME280;68797;49.782;19.054;2023-07-28T02:44:04;96367.06;;;16.82;56.67
79331;BME280;68797;49.782;19.054;2023-07-28T02:46:31;96407.84;;;17.24;55.53
79331;BME280;68797;49.782;19.054;2023-07-28T02:48:58;96379.91;;;17.02;56.43
79331;BME280;68797;49.782;19.054;2023-07-28T02:51:25;96393.41;;;17.01;58.97
79331;BME280;68797;49.782;19.054;2023-07-28T02:53:57;96407.25;;;17.07;59.27
79331;BME280;68797;49.782;19.054;2023-07-28T02:56:32;96415.06;;;17.10;58.37
79331;BME280;68797;49.782;19.054;2023-07-28T02:59:03;96411.88;;;16.93;59.13
79331;BME280;68797;49.782;19.054;2023-07-28T03:01:33;96429.97;;;17.02;59.23
79331;BME280;68797;49.782;19.054;2023-07-28T03:04:03;96413.91;;;16.89;57.36
79331;BME280;68797;49.782;19.054;2023-07-28T03:06:44;96428.38;;;16.99;58.47
79331;BME280;68797;49.782;19.054;2023-07-28T03:09:12;96410.50;;;16.74;60.44
79331;BME280;68797;49.782;19.054;2023-07-28T03:11:50;96383.25;;;16.55;61.81
79331;BME280;68797;49.782;19.054;2023-07-28T03:14:18;96421.22;;;16.74;60.38
79331;BME280;68797;49.782;19.054;2023-07-28T03:16:46;96391.69;;;16.49;61.05
79331;BME280;68797;49.782;19.054;2023-07-28T03:19:13;96414.88;;;16.75;62.39
79331;BME280;68797;49.782;19.054;2023-07-28T03:21:40;96433.19;;;16.81;60.37
79331;BME280;68797;49.782;19.054;2023-07-28T03:24:09;96406.16;;;16.59;62.91
79331;BME280;68797;49.782;19.054;2023-07-28T03:26:36;96409.72;;;16.72;60.55
79331;BME280;68797;49.782;19.054;2023-07-28T03:29:04;96427.41;;;16.88;60.00
79331;BME280;68797;49.782;19.054;2023-07-28T03:31:34;96394.44;;;16.74;61.02
79331;BME280;68797;49.782;19.054;2023-07-28T03:34:03;96385.94;;;16.80;59.90
79331;BME280;68797;49.782;19.054;2023-07-28T03:36:32;96414.13;;;16.86;61.79
79331;BME280;68797;49.782;19.054;2023-07-28T03:39:03;96368.97;;;16.67;59.71
79331;BME280;68797;49.782;19.054;2023-07-28T03:41:34;96418.19;;;16.92;61.33
79331;BME280;68797;49.782;19.054;2023-07-28T03:44:04;96380.16;;;16.74;61.13
79331;BME280;68797;49.782;19.054;2023-07-28T03:46:33;96408.97;;;16.83;63.07
79331;BME280;68797;49.782;19.054;2023-07-28T03:49:00;96410.03;;;16.80;61.54
79331;BME280;68797;49.782;19.054;2023-07-28T03:51:27;96402.31;;;17.01;58.41
79331;BME280;68797;49.782;19.054;2023-07-28T03:53:58;96420.00;;;17.04;59.67
79331;BME280;68797;49.782;19.054;2023-07-28T03:56:29;96411.00;;;17.05;58.31
79331;BME280;68797;49.782;19.054;2023-07-28T03:58:57;96377.47;;;16.87;61.06
79331;BME280;68797;49.782;19.054;2023-07-28T04:01:25;96430.50;;;17.07;60.91
79331;BME280;68797;49.782;19.054;2023-07-28T04:03:55;96382.81;;;16.99;59.47
79331;BME280;68797;49.782;19.054;2023-07-28T04:06:42;96396.53;;;17.07;59.51
79331;BME280;68797;49.782;19.054;2023-07-28T04:09:15;96401.81;;;16.96;61.12
79331;BME280;68797;49.782;19.054;2023-07-28T04:11:41;96423.66;;;17.03;60.35
79331;BME280;68797;49.782;19.054;2023-07-28T04:14:08;96339.19;;;16.59;60.70
79331;BME280;68797;49.782;19.054;2023-07-28T04:16:38;96382.72;;;16.88;60.32
79331;BME280;68797;49.782;19.054;2023-07-28T04:19:08;96376.06;;;16.81;61.69
79331;BME280;68797;49.782;19.054;2023-07-28T04:21:35;96407.69;;;16.89;62.86
79331;BME280;68797;49.782;19.054;2023-07-28T04:24:13;96397.69;;;17.03;60.55
79331;BME280;68797;49.782;19.054;2023-07-28T04:26:51;96394.06;;;16.92;61.63
79331;BME280;68797;49.782;19.054;2023-07-28T04:29:21;96350.59;;;16.75;61.28
79331;BME280;68797;49.782;19.054;2023-07-28T04:31:48;96385.41;;;16.88;61.25
79331;BME280;68797;49.782;19.054;2023-07-28T04:34:24;96366.09;;;16.83;60.57
79331;BME280;68797;49.782;19.054;2023-07-28T04:37:11;96395.34;;;17.11;61.19
79331;BME280;68797;49.782;19.054;2023-07-28T04:40:03;96395.66;;;16.94;63.59
79331;BME280;68797;49.782;19.054;2023-07-28T04:42:34;96398.16;;;16.97;63.27
79331;BME280;68797;49.782;19.054;2023-07-28T04:45:08;96401.03;;;16.81;64.42
79331;BME280;68797;49.782;19.054;2023-07-28T04:47:38;96399.44;;;16.79;66.11
79331;BME280;68797;49.782;19.054;2023-07-28T04:50:12;96368.31;;;16.38;67.04
79331;BME280;68797;49.782;19.054;2023-07-28T04:53:08;96406.91;;;16.61;67.77
79331;BME280;68797;49.782;19.054;2023-07-28T04:55:43;96378.00;;;16.53;66.27
79331;BME280;68797;49.782;19.054;2023-07-28T04:58:10;96405.63;;;16.67;66.34
79331;BME280;68797;49.782;19.054;2023-07-28T05:01:03;96387.94;;;16.39;67.36
79331;BME280;68797;49.782;19.054;2023-07-28T05:03:33;96417.94;;;16.56;69.32
79331;BME280;68797;49.782;19.054;2023-07-28T05:06:19;96407.75;;;16.49;67.89
79331;BME280;68797;49.782;19.054;2023-07-28T05:08:46;96397.59;;;16.41;69.40
79331;BME280;68797;49.782;19.054;2023-07-28T05:11:24;96365.53;;;16.27;69.76
79331;BME280;68797;49.782;19.054;2023-07-28T05:13:50;96405.28;;;16.46;70.97
79331;BME280;68797;49.782;19.054;2023-07-28T05:16:21;96409.69;;;16.34;71.92
79331;BME280;68797;49.782;19.054;2023-07-28T05:19:07;96407.63;;;16.38;71.36
79331;BME280;68797;49.782;19.054;2023-07-28T05:21:56;96404.56;;;16.44;72.51
79331;BME280;68797;49.782;19.054;2023-07-28T05:24:38;96373.34;;;16.17;72.93
79331;BME280;68797;49.782;19.054;2023-07-28T05:27:08;96374.84;;;16.09;74.11
79331;BME280;68797;49.782;19.054;2023-07-28T05:29:34;96363.81;;;16.13;73.57
79331;BME280;68797;49.782;19.054;2023-07-28T05:32:12;96378.69;;;16.17;73.02
79331;BME280;68797;49.782;19.054;2023-07-28T05:35:03;96375.38;;;16.26;73.24
79331;BME280;68797;49.782;19.054;2023-07-28T05:37:33;96356.63;;;16.14;74.25
79331;BME280;68797;49.782;19.054;2023-07-28T05:40:02;96349.97;;;16.07;74.29
79331;BME280;68797;49.782;19.054;2023-07-28T05:42:32;96370.03;;;16.26;74.33
79331;BME280;68797;49.782;19.054;2023-07-28T05:45:01;96349.78;;;16.10;74.30
79331;BME280;68797;49.782;19.054;2023-07-28T05:47:30;96371.00;;;16.13;74.70
79331;BME280;68797;49.782;19.054;2023-07-28T05:49:57;96371.84;;;16.26;74.15
79331;BME280;68797;49.782;19.054;2023-07-28T05:52:29;96360.56;;;15.95;76.10
79331;BME280;68797;49.782;19.054;2023-07-28T05:54:57;96353.97;;;16.14;74.98
79331;BME280;68797;49.782;19.054;2023-07-28T05:57:23;96371.22;;;16.22;75.22
79331;BME280;68797;49.782;19.054;2023-07-28T05:59:51;96373.69;;;16.25;76.15
79331;BME280;68797;49.782;19.054;2023-07-28T06:02:19;96390.19;;;16.45;74.77
79331;BME280;68797;49.782;19.054;2023-07-28T06:04:56;96392.88;;;16.32;75.76
79331;BME280;68797;49.782;19.054;2023-07-28T06:07:23;96388.69;;;16.41;74.58
79331;BME280;68797;49.782;19.054;2023-07-28T06:09:49;96419.75;;;16.43;74.18
79331;BME280;68797;49.782;19.054;2023-07-28T06:12:18;96420.06;;;16.39;74.73
79331;BME280;68797;49.782;19.054;2023-07-28T06:14:45;96411.16;;;16.25;74.66
79331;BME280;68797;49.782;19.054;2023-07-28T06:17:14;96427.22;;;16.38;74.75
79331;BME280;68797;49.782;19.054;2023-07-28T06:19:42;96410.97;;;16.41;73.90
79331;BME280;68797;49.782;19.054;2023-07-28T06:22:10;96401.75;;;16.33;73.99
79331;BME280;68797;49.782;19.054;2023-07-28T06:24:44;96422.44;;;16.43;73.56
79331;BME280;68797;49.782;19.054;2023-07-28T06:27:12;96409.69;;;16.34;73.74
79331;BME280;68797;49.782;19.054;2023-07-28T06:29:42;96424.88;;;16.34;75.11
79331;BME280;68797;49.782;19.054;2023-07-28T06:32:11;96445.25;;;16.49;75.76
79331;BME280;68797;49.782;19.054;2023-07-28T06:34:38;96431.09;;;16.47;75.60
79331;BME280;68797;49.782;19.054;2023-07-28T06:37:05;96421.03;;;16.38;75.34
79331;BME280;68797;49.782;19.054;2023-07-28T06:39:32;96433.78;;;16.60;75.72
79331;BME280;68797;49.782;19.054;2023-07-28T06:41:59;96427.91;;;16.42;75.98
79331;BME280;68797;49.782;19.054;2023-07-28T06:44:28;96451.78;;;16.58;76.13
79331;BME280;68797;49.782;19.054;2023-07-28T06:46:58;96428.66;;;16.44;74.46
79331;BME280;68797;49.782;19.054;2023-07-28T06:49:26;96428.19;;;16.37;75.51
79331;BME280;68797;49.782;19.054;2023-07-28T06:51:55;96437.75;;;16.41;75.91
79331;BME280;68797;49.782;19.054;2023-07-28T06:54:22;96429.78;;;16.27;76.01
79331;BME280;68797;49.782;19.054;2023-07-28T06:56:49;96419.81;;;16.16;76.51
79331;BME280;68797;49.782;19.054;2023-07-28T06:59:16;96401.88;;;15.91;78.39
79331;BME280;68797;49.782;19.054;2023-07-28T07:01:43;96439.38;;;16.04;80.43
79331;BME280;68797;49.782;19.054;2023-07-28T07:04:10;96432.50;;;16.00;81.72
79331;BME280;68797;49.782;19.054;2023-07-28T07:06:38;96428.22;;;15.71;82.38
79331;BME280;68797;49.782;19.054;2023-07-28T07:09:06;96456.56;;;15.87;81.77
79331;BME280;68797;49.782;19.054;2023-07-28T07:11:35;96449.03;;;15.80;84.56
79331;BME280;68797;49.782;19.054;2023-07-28T07:14:02;96437.78;;;15.60;83.90
79331;BME280;68797;49.782;19.054;2023-07-28T07:16:29;96464.00;;;15.82;84.68
79331;BME280;68797;49.782;19.054;2023-07-28T07:18:56;96449.06;;;15.92;84.07
79331;BME280;68797;49.782;19.054;2023-07-28T07:21:23;96446.88;;;15.85;83.64
79331;BME280;68797;49.782;19.054;2023-07-28T07:23:51;96443.09;;;16.02;84.13
79331;BME280;68797;49.782;19.054;2023-07-28T07:26:28;96458.94;;;16.32;83.71
79331;BME280;68797;49.782;19.054;2023-07-28T07:28:56;96420.72;;;16.30;82.07
79331;BME280;68797;49.782;19.054;2023-07-28T07:31:23;96441.59;;;16.63;82.19
79331;BME280;68797;49.782;19.054;2023-07-28T07:33:51;96452.69;;;16.83;80.92
79331;BME280;68797;49.782;19.054;2023-07-28T07:36:19;96432.22;;;16.82;81.74
79331;BME280;68797;49.782;19.054;2023-07-28T07:38:51;96468.25;;;17.04;82.17
79331;BME280;68797;49.782;19.054;2023-07-28T07:41:21;96469.66;;;16.97;80.62
79331;BME280;68797;49.782;19.054;2023-07-28T07:43:50;96416.13;;;16.44;81.76
79331;BME280;68797;49.782;19.054;2023-07-28T07:46:19;96451.06;;;16.55;80.68
79331;BME280;68797;49.782;19.054;2023-07-28T07:48:46;96460.78;;;16.44;82.07
79331;BME280;68797;49.782;19.054;2023-07-28T07:51:13;96443.28;;;16.25;81.63
79331;BME280;68797;49.782;19.054;2023-07-28T07:53:40;96451.31;;;16.25;81.38
79331;BME280;68797;49.782;19.054;2023-07-28T07:56:09;96491.16;;;16.30;83.51
79331;BME280;68797;49.782;19.054;2023-07-28T07:58:36;96456.00;;;16.09;82.74
79331;BME280;68797;49.782;19.054;2023-07-28T08:01:03;96447.47;;;15.90;83.40
79331;BME280;68797;49.782;19.054;2023-07-28T08:03:32;96474.34;;;16.01;84.61
79331;BME280;68797;49.782;19.054;2023-07-28T08:06:09;96457.81;;;16.09;83.86
79331;BME280;68797;49.782;19.054;2023-07-28T08:08:38;96488.25;;;16.20;85.20
79331;BME280;68797;49.782;19.054;2023-07-28T08:11:07;96459.47;;;15.97;83.82
79331;BME280;68797;49.782;19.054;2023-07-28T08:13:34;96456.00;;;16.09;84.00
79331;BME280;68797;49.782;19.054;2023-07-28T08:16:02;96486.72;;;16.16;85.40
79331;BME280;68797;49.782;19.054;2023-07-28T08:18:30;96468.94;;;16.15;85.01
79331;BME280;68797;49.782;19.054;2023-07-28T08:21:01;96470.88;;;16.13;85.60
79331;BME280;68797;49.782;19.054;2023-07-28T08:23:28;96431.13;;;16.07;84.82
79331;BME280;68797;49.782;19.054;2023-07-28T08:25:55;96457.03;;;16.59;84.49
79331;BME280;68797;49.782;19.054;2023-07-28T08:28:22;96430.59;;;16.54;82.65
79331;BME280;68797;49.782;19.054;2023-07-28T08:30:56;96422.38;;;16.70;79.33
79331;BME280;68797;49.782;19.054;2023-07-28T08:33:23;96462.47;;;17.10;78.37
79331;BME280;68797;49.782;19.054;2023-07-28T08:35:51;96456.75;;;17.27;80.79
79331;BME280;68797;49.782;19.054;2023-07-28T08:38:18;96428.31;;;17.37;79.08
79331;BME280;68797;49.782;19.054;2023-07-28T08:40:48;96422.22;;;17.72;75.67
79331;BME280;68797;49.782;19.054;2023-07-28T08:43:16;96452.41;;;17.99;76.84
79331;BME280;68797;49.782;19.054;2023-07-28T08:45:44;96428.00;;;18.38;76.41
79331;BME280;68797;49.782;19.054;2023-07-28T08:48:12;96440.41;;;18.51;74.79
79331;BME280;68797;49.782;19.054;2023-07-28T08:50:42;96445.25;;;18.81;74.46
79331;BME280;68797;49.782;19.054;2023-07-28T08:53:10;96447.97;;;19.04;70.56
79331;BME280;68797;49.782;19.054;2023-07-28T08:55:37;96464.22;;;18.91;70.64
79331;BME280;68797;49.782;19.054;2023-07-28T08:58:20;96443.66;;;18.68;70.80
79331;BME280;68797;49.782;19.054;2023-07-28T09:00:52;96437.97;;;18.59;73.39
79331;BME280;68797;49.782;19.054;2023-07-28T09:03:19;96425.16;;;18.28;72.78
79331;BME280;68797;49.782;19.054;2023-07-28T09:05:50;96479.38;;;18.57;73.41
79331;BME280;68797;49.782;19.054;2023-07-28T09:08:18;96456.59;;;18.15;72.65
79331;BME280;68797;49.782;19.054;2023-07-28T09:10:49;96442.00;;;18.19;72.64
79331;BME280;68797;49.782;19.054;2023-07-28T09:13:17;96476.34;;;18.38;74.21
79331;BME280;68797;49.782;19.054;2023-07-28T09:15:46;96442.81;;;18.08;73.31
79331;BME280;68797;49.782;19.054;2023-07-28T09:18:16;96469.28;;;18.37;73.29
79331;BME280;68797;49.782;19.054;2023-07-28T09:20:44;96479.84;;;18.62;74.42
79331;BME280;68797;49.782;19.054;2023-07-28T09:23:13;96467.88;;;18.79;72.27
79331;BME280;68797;49.782;19.054;2023-07-28T09:25:44;96435.38;;;18.47;72.74
79331;BME280;68797;49.782;19.054;2023-07-28T09:28:15;96460.75;;;18.67;73.47
79331;BME280;68797;49.782;19.054;2023-07-28T09:30:48;96462.63;;;18.53;73.38
79331;BME280;68797;49.782;19.054;2023-07-28T09:33:36;96430.84;;;18.47;75.39
79331;BME280;68797;49.782;19.054;2023-07-28T09:36:11;96440.94;;;18.33;74.26
79331;BME280;68797;49.782;19.054;2023-07-28T09:38:41;96486.34;;;18.59;74.73
79331;BME280;68797;49.782;19.054;2023-07-28T09:41:10;96444.09;;;18.26;74.55
79331;BME280;68797;49.782;19.054;2023-07-28T09:43:40;96476.28;;;18.50;75.85
79331;BME280;68797;49.782;19.054;2023-07-28T09:46:08;96432.56;;;18.48;76.28
79331;BME280;68797;49.782;19.054;2023-07-28T09:48:39;96440.97;;;18.68;74.25
79331;BME280;68797;49.782;19.054;2023-07-28T09:51:24;96467.72;;;18.69;76.78
79331;BME280;68797;49.782;19.054;2023-07-28T09:53:59;96497.28;;;18.69;78.12
79331;BME280;68797;49.782;19.054;2023-07-28T09:56:41;96469.53;;;18.69;77.63
79331;BME280;68797;49.782;19.054;2023-07-28T09:59:11;96488.25;;;18.81;75.72
79331;BME280;68797;49.782;19.054;2023-07-28T10:01:48;96493.31;;;18.86;77.35
79331;BME280;68797;49.782;19.054;2023-07-28T10:04:20;96493.44;;;18.84;79.01
79331;BME280;68797;49.782;19.054;2023-07-28T10:07:07;96507.56;;;18.75;76.87
79331;BME280;68797;49.782;19.054;2023-07-28T10:09:41;96471.41;;;18.44;75.46
79331;BME280;68797;49.782;19.054;2023-07-28T10:12:24;96502.47;;;18.59;78.22
79331;BME280;68797;49.782;19.054;2023-07-28T10:15:04;96450.97;;;18.66;77.04
79331;BME280;68797;49.782;19.054;2023-07-28T10:17:34;96483.78;;;18.93;75.98
79331;BME280;68797;49.782;19.054;2023-07-28T10:23:22;96452.38;;;19.50;73.19
79331;BME280;68797;49.782;19.054;2023-07-28T10:26:00;96505.03;;;19.76;73.41
79331;BME280;68797;49.782;19.054;2023-07-28T10:28:34;96511.50;;;19.85;74.65
79331;BME280;68797;49.782;19.054;2023-07-28T10:31:10;96478.56;;;19.81;74.13
79331;BME280;68797;49.782;19.054;2023-07-28T10:33:50;96481.63;;;19.88;69.42
79331;BME280;68797;49.782;19.054;2023-07-28T10:41:28;96494.44;;;20.39;68.03
79331;BME280;68797;49.782;19.054;2023-07-28T10:44:00;96503.91;;;20.44;69.21
79331;BME280;68797;49.782;19.054;2023-07-28T10:46:28;96467.28;;;19.98;67.31
79331;BME280;68797;49.782;19.054;2023-07-28T10:49:04;96481.19;;;20.15;69.05
79331;BME280;68797;49.782;19.054;2023-07-28T10:51:36;96467.25;;;20.10;70.50
79331;BME280;68797;49.782;19.054;2023-07-28T10:54:07;96470.88;;;20.31;69.08
79331;BME280;68797;49.782;19.054;2023-07-28T10:56:34;96466.69;;;20.27;68.64
79331;BME280;68797;49.782;19.054;2023-07-28T10:59:05;96466.19;;;20.44;67.83
79331;BME280;68797;49.782;19.054;2023-07-28T11:01:39;96467.03;;;20.45;68.70
79331;BME280;68797;49.782;19.054;2023-07-28T11:04:15;96481.91;;;20.60;66.84
79331;BME280;68797;49.782;19.054;2023-07-28T11:06:49;96469.69;;;20.56;67.77
79331;BME280;68797;49.782;19.054;2023-07-28T11:09:19;96494.53;;;20.59;66.39
79331;BME280;68797;49.782;19.054;2023-07-28T11:11:50;96508.50;;;20.65;66.19
79331;BME280;68797;49.782;19.054;2023-07-28T11:14:19;96514.47;;;20.68;66.60
79331;BME280;68797;49.782;19.054;2023-07-28T11:16:49;96458.34;;;20.41;67.00
79331;BME280;68797;49.782;19.054;2023-07-28T11:19:21;96504.03;;;20.75;66.35
79331;BME280;68797;49.782;19.054;2023-07-28T11:21:57;96511.00;;;20.77;67.81
79331;BME280;68797;49.782;19.054;2023-07-28T11:24:29;96496.56;;;20.46;68.31
79331;BME280;68797;49.782;19.054;2023-07-28T11:27:06;96514.72;;;20.22;68.66
79331;BME280;68797;49.782;19.054;2023-07-28T11:29:35;96506.13;;;20.28;69.60
79331;BME280;68797;49.782;19.054;2023-07-28T11:32:08;96510.38;;;20.53;67.35
79331;BME280;68797;49.782;19.054;2023-07-28T11:34:38;96517.19;;;20.89;68.21
79331;BME280;68797;49.782;19.054;2023-07-28T11:37:10;96479.91;;;20.73;66.48
79331;BME280;68797;49.782;19.054;2023-07-28T11:39:44;96482.72;;;20.93;67.49
79331;BME280;68797;49.782;19.054;2023-07-28T11:42:15;96483.38;;;21.06;65.08
79331;BME280;68797;49.782;19.054;2023-07-28T11:44:47;96511.56;;;21.34;65.37
79331;BME280;68797;49.782;19.054;2023-07-28T11:47:18;96512.38;;;21.55;66.76
79331;BME280;68797;49.782;19.054;2023-07-28T11:49:48;96510.78;;;21.73;64.85
79331;BME280;68797;49.782;19.054;2023-07-28T11:52:19;96513.06;;;21.78;64.50
79331;BME280;68797;49.782;19.054;2023-07-28T11:54:48;96502.94;;;21.40;62.86
79331;BME280;68797;49.782;19.054;2023-07-28T11:57:17;96491.16;;;21.41;64.39
79331;BME280;68797;49.782;19.054;2023-07-28T11:59:45;96518.00;;;21.42;65.01
79331;BME280;68797;49.782;19.054;2023-07-28T12:02:23;96513.53;;;21.32;64.35
79331;BME280;68797;49.782;19.054;2023-07-28T12:04:56;96521.03;;;21.07;64.51
79331;BME280;68797;49.782;19.054;2023-07-28T12:07:33;96485.81;;;20.67;65.98
79331;BME280;68797;49.782;19.054;2023-07-28T12:10:06;96495.22;;;20.41;71.00
79331;BME280;68797;49.782;19.054;2023-07-28T12:12:43;96502.66;;;20.37;69.27
79331;BME280;68797;49.782;19.054;2023-07-28T12:15:30;96528.81;;;20.69;70.21
79331;BME280;68797;49.782;19.054;2023-07-28T12:18:16;96530.81;;;20.87;69.42
79331;BME280;68797;49.782;19.054;2023-07-28T12:20:44;96519.19;;;20.87;67.84
79331;BME280;68797;49.782;19.054;2023-07-28T12:23:20;96493.06;;;20.87;67.30
79331;BME280;68797;49.782;19.054;2023-07-28T12:25:50;96517.13;;;21.21;66.81
79331;BME280;68797;49.782;19.054;2023-07-28T12:28:23;96523.97;;;21.46;64.50
79331;BME280;68797;49.782;19.054;2023-07-28T12:30:49;96533.78;;;21.47;65.77
79331;BME280;68797;49.782;19.054;2023-07-28T12:33:18;96508.91;;;21.43;64.08
79331;BME280;68797;49.782;19.054;2023-07-28T12:35:48;96497.72;;;21.27;62.55
79331;BME280;68797;49.782;19.054;2023-07-28T12:38:25;96529.38;;;21.46;62.02
79331;BME280;68797;49.782;19.054;2023-07-28T12:41:00;96512.34;;;21.45;68.51
79331;BME280;68797;49.782;19.054;2023-07-28T12:43:36;96536.25;;;21.60;63.46
79331;BME280;68797;49.782;19.054;2023-07-28T12:46:06;96496.28;;;21.44;64.00
79331;BME280;68797;49.782;19.054;2023-07-28T12:48:34;96519.81;;;21.63;66.27
79331;BME280;68797;49.782;19.054;2023-07-28T12:51:07;96492.81;;;21.63;63.73
79331;BME280;68797;49.782;19.054;2023-07-28T12:53:36;96519.78;;;21.93;64.79
79331;BME280;68797;49.782;19.054;2023-07-28T12:56:08;96484.22;;;21.88;61.82
79331;BME280;68797;49.782;19.054;2023-07-28T12:58:38;96517.88;;;22.15;63.47
79331;BME280;68797;49.782;19.054;2023-07-28T13:01:10;96486.59;;;22.12;62.02
79331;BME280;68797;49.782;19.054;2023-07-28T13:03:41;96485.34;;;22.26;64.72
79331;BME280;68797;49.782;19.054;2023-07-28T13:06:09;96470.03;;;21.96;61.75
79331;BME280;68797;49.782;19.054;2023-07-28T13:08:36;96498.41;;;22.11;63.75
79331;BME280;68797;49.782;19.054;2023-07-28T13:11:06;96469.84;;;21.78;64.41
79331;BME280;68797;49.782;19.054;2023-07-28T13:13:34;96487.81;;;21.98;62.15
79331;BME280;68797;49.782;19.054;2023-07-28T13:16:01;96519.94;;;22.32;62.90
79331;BME280;68797;49.782;19.054;2023-07-28T13:18:32;96512.97;;;22.49;62.44
79331;BME280;68797;49.782;19.054;2023-07-28T13:21:00;96523.53;;;22.61;63.66